Nearby METAR Reports

 

EGOS - RAF Shawbury, Shropshire, UK
Distance from station: NE 9mi, 14km
Updated: 26/04/2018 14:50
Mostly cloudy
Mostly cloudy
 Wind from W
Wind: W 22 mph , 35 km/h
Temperature: 12°C
Dew Point: 2°C
Humidity: 51%
Barometer: 1014 hPa
Clouds: Mostly cloudy
Visibility: 6 miles , 10 km
Cloud details: Few Clouds 1219 m
Mostly cloudy 7620 m
2018/04/26 13:50 EGOS 261350Z 26019KT 9999 FEW040 BKN250 12/02 Q1014 BLU NOSIG
KNUQ - Moffett Nas/Mtn, California, USA
Distance from station: N 9mi, 14km
Updated: 26/04/2018 14:56
Overcast
Overcast
 Wind from N
Wind: N 5 mph , 7 km/h
Temperature: 12°C
Dew Point: 8°C
Humidity: 77%
Barometer: 1017.3 hPa
Clouds: Overcast
Visibility: 10 miles , 16 km
Cloud details: Overcast 610 m
2018/04/26 13:56 KNUQ 261356Z 35004KT 10SM OVC020 12/08 A3004 RMK AO2 SLP176 T01220083
 
KPAO - Palo Alto, California, USA
Distance from station: NNW 14mi, 23km
Updated: 26/04/2018 15:47
Overcast
Overcast
 Wind from NNW
Wind: NNW 6 mph , 9 km/h
Barometer: 1017.6 hPa
Clouds: Overcast
Visibility: 8 miles , 13 km
Cloud details: Overcast 579 m
2018/04/26 14:47 KPAO 261447Z 33005KT 8SM OVC019 A3005
KRHV - San Jose/Reid, California, USA
Distance from station: ENE 12mi, 19km
Updated: 26/04/2018 15:47
Overcast
Overcast
 Wind from NW
Wind: NW 6 mph , 9 km/h
Temperature: 13°C
Dew Point: 9°C
Humidity: 77%
Barometer: 1016.9 hPa
Clouds: Overcast
Visibility: 7 miles , 11 km
Cloud details: Overcast 549 m
2018/04/26 14:47 KRHV 261447Z 32005KT 7SM OVC018 13/09 A3003
 
KOAK - Oakland, California, USA
Distance from station: NNW 31mi, 50km
Updated: 26/04/2018 15:53
Overcast
Overcast
 Wind from W
Wind: W 9 mph , 15 km/h
Temperature: 11°C
Dew Point: 7°C
Humidity: 77%
Barometer: 1017.9 hPa
Clouds: Overcast
Visibility: 7 miles , 11 km
Cloud details: Overcast 549 m
2018/04/26 14:53 KOAK 261453Z 27008KT 7SM OVC018 11/07 A3006 RMK AO2 SLP177 T01060072 53004
KSQL - San Carlos Airpo, California, USA
Distance from station: NW 21mi, 34km
Updated: 26/04/2018 15:47
Overcast
Overcast
 Wind from WNW
Wind: WNW 10 mph , 17 km/h
Temperature: 11°C
Dew Point: 7°C
Humidity: 77%
Barometer: 1017.6 hPa
Clouds: Overcast
Visibility: 10 miles , 16 km
Cloud details: Overcast 610 m
2018/04/26 14:47 KSQL 261447Z 30009KT 10SM OVC020 11/07 A3005
 
KSFO - San Francisco, California, USA
Distance from station: NW 30mi, 49km
Updated: 26/04/2018 14:56
Overcast
Overcast
 Wind from W
Wind: W 7 mph , 11 km/h
Temperature: 11°C
Dew Point: 7°C
Humidity: 77%
Barometer: 1017.3 hPa
Clouds: Overcast
Visibility: 10 miles , 16 km
Cloud details: Overcast 518 m
2018/04/26 13:56 KSFO 261356Z 27006KT 10SM OVC017 11/07 A3004 RMK AO2 SLP173 T01110067
KE16 - San Martin, California, USA
Distance from station: ESE 27mi, 43km
Updated: 26/04/2018 15:35
Overcast
Overcast
 Wind from S
Wind: S 3 mph , 6 km/h
Temperature: 10°C
Dew Point: 8°C
Humidity: 88%
Barometer: 1018.3 hPa
Clouds: Overcast
Visibility: 9 miles , 14 km
Cloud details: Overcast 335 m
2018/04/26 14:35 KE16 261435Z AUTO 18003KT 9SM OVC011 10/08 A3007 RMK AO2
 
KWVI - Watsonville, California, USA
Distance from station: SSE 27mi, 44km
Updated: 26/04/2018 15:53
Overcast
Overcast
 Wind from calm
Wind: Calm
Temperature: 11°C
Dew Point: 8°C
Humidity: 82%
Barometer: 1017.9 hPa
Clouds: Overcast
Visibility: 8 miles , 13 km
Cloud details: Overcast 396 m
2018/04/26 14:53 KWVI 261453Z AUTO 00000KT 8SM OVC013 11/08 A3006 RMK AO2 SLP179 T01060083 53006
KHAF - Half Moon Bay, California, USA
Distance from station: WNW 31mi, 50km
Updated: 26/04/2018 15:40
Overcast
Overcast
 Wind from NW
Wind: NW 3 mph , 6 km/h
Temperature: 10°C
Dew Point: 7°C
Humidity: 82%
Barometer: 1017.9 hPa
Clouds: Overcast
Visibility: 9 miles , 14 km
Cloud details: Overcast 549 m
2018/04/26 14:40 KHAF 261440Z AUTO 32003KT 9SM OVC018 10/07 A3006 RMK AO2
 
KHWD - Hayward, California, USA
Distance from station: N 28mi, 44km
Updated: 26/04/2018 14:54
Overcast
Overcast
 Wind from NW
Wind: NW 8 mph , 13 km/h
Temperature: 12°C
Dew Point: 6°C
Humidity: 67%
Barometer: 1017.3 hPa
Clouds: Overcast
Visibility: 10 miles , 16 km
Cloud details: Overcast 549 m
2018/04/26 13:54 KHWD 261354Z 31007KT 10SM OVC018 12/06 A3004 RMK AO2 SLP181 T01170061
KLVK - Livermore, California, USA
Distance from station: NNE 31mi, 51km
Updated: 26/04/2018 15:53
Mostly cloudy
Mostly cloudy
 Wind from W
Wind: W 9 mph , 15 km/h
Temperature: 11°C
Dew Point: 9°C
Humidity: 88%
Barometer: 1016.9 hPa
Clouds: Mostly cloudy
Visibility: 10 miles , 16 km
Cloud details: Mostly cloudy 488 m
2018/04/26 14:53 KLVK 261453Z 28008KT 10SM BKN016 11/09 A3003 RMK AO2 SLP168 T01110089 53004